Aviation Digital Data Service (ADDS)

Output produced by TAFs form (0551 UTC 25 February 2018)
found at http://aviationweather.gov/adds/tafs/
 
METAR text: ZSSS 250530Z 01005MPS 9999 FEW026 11/05 Q1025 NOSIG
Conditions at: ZSSS (SHANGHAI/HONGQIA, CN) observed 0530 UTC 25 February 2018
Temperature: 11.0°C (52°F)
Dewpoint: 5.0°C (41°F) [RH = 66%]
Pressure (altimeter): 30.27 inches Hg (1025.0 mb)
Winds: from the N (10 degrees) at 12 MPH (10 knots; 5.2 m/s)
Visibility: 6 or more miles (10+ km)
Ceiling: at least 12,000 feet AGL
Clouds: few clouds at 2600 feet AGL
Weather: no significant weather observed at this time

Forecast for: ZSSS (SHANGHAI/HONGQIA, CN)
Text: TAF ZSSS 250312Z 2506/2606 03003MPS 5000 BR SCT020 TX13/2605Z TN04/2521Z
Forecast period: 0600 UTC 25 February 2018 to 0200 UTC 26 February 2018
Forecast type: FROM: standard forecast or significant change
Winds: from the NNE (30 degrees) at 7 MPH (6 knots; 3.1 m/s)
Visibility: 3 miles (5 km)
Clouds: scattered clouds at 2000 feet AGL
Weather: BR  (mist)
Text: BECMG 2602/2603 11004MPS
Forecast period: 0200 to 0600 UTC 26 February 2018
Forecast type: BECOMING: Conditions expected to become as follows by 0300 UTC 26 February 2018
Winds: from the ESE (110 degrees) at 9 MPH (8 knots; 4.2 m/s)
Visibility: 3 miles (5 km)
Clouds: scattered clouds at 2000 feet AGL
Weather: BR  (mist)